Time;durP1;ratioP1;P1;durP2;ratioP2;P2;SDS_P1;SDS_P2;PMS_P1;PMS_P2;Temp;Humidity;BMP_temperature;BMP_pressure;BME280_temperature;BME280_humidity;BME280_pressure;Samples;Min_cycle;Max_cycle;Signal;HPM_P1;HPM_P2
2022/06/01 00:00:58;;;;;;;9.35;6.75;;;11.50;99.90;;;;;;5055075;28;19920;-86
2022/06/01 00:03:24;;;;;;;8.75;7.28;;;11.50;99.90;;;;;;5055216;28;20123;-86
2022/06/01 00:05:53;;;;;;;9.63;7.68;;;11.40;99.90;;;;;;5071885;28;20070;-86
2022/06/01 00:08:21;;;;;;;9.32;7.97;;;11.40;99.90;;;;;;5054707;28;20047;-85
2022/06/01 00:10:47;;;;;;;10.80;7.95;;;11.40;99.90;;;;;;5054668;28;20550;-87
2022/06/01 00:13:12;;;;;;;9.82;7.57;;;11.40;99.90;;;;;;5071579;28;20120;-86
2022/06/01 00:15:38;;;;;;;10.02;8.27;;;11.40;99.90;;;;;;5070931;28;20476;-85
2022/06/01 00:18:04;;;;;;;10.35;7.93;;;11.40;99.90;;;;;;5054827;28;20032;-86
2022/06/01 00:20:30;;;;;;;10.48;7.55;;;11.30;99.90;;;;;;5037936;28;20036;-85
2022/06/01 00:22:56;;;;;;;8.85;7.97;;;11.30;99.90;;;;;;5038532;28;20393;-86
2022/06/01 00:25:24;;;;;;;10.13;8.13;;;11.20;99.90;;;;;;5072204;28;20485;-86
2022/06/01 00:27:49;;;;;;;9.80;8.23;;;11.20;99.90;;;;;;5054724;28;20041;-85
2022/06/01 00:30:16;;;;;;;10.68;7.93;;;11.20;99.90;;;;;;5071454;28;20511;-85
2022/06/01 00:32:42;;;;;;;8.65;7.75;;;11.20;99.90;;;;;;5037878;28;20032;-86
2022/06/01 00:35:10;;;;;;;9.60;7.65;;;11.00;99.90;;;;;;5071517;28;20515;-86
2022/06/01 00:37:36;;;;;;;8.48;7.60;;;11.00;99.90;;;;;;5054635;28;20381;-84
2022/06/01 00:40:05;;;;;;;9.68;7.78;;;11.00;99.90;;;;;;5021356;28;20102;-85
2022/06/01 00:42:32;;;;;;;8.27;7.45;;;11.00;99.90;;;;;;5070859;28;20041;-85
2022/06/01 00:44:58;;;;;;;10.73;8.30;;;11.00;99.90;;;;;;5071482;28;20045;-85
2022/06/01 00:47:26;;;;;;;10.50;9.00;;;11.00;99.90;;;;;;5038174;28;20044;-84
2022/06/01 00:49:54;;;;;;;9.88;8.10;;;11.00;99.90;;;;;;5054507;28;20048;-86
2022/06/01 00:52:35;;;;;;;10.43;9.20;;;11.00;99.90;;;;;;5054981;28;20125;-85
2022/06/01 00:55:21;;;;;;;11.52;10.25;;;11.10;99.90;;;;;;5065491;28;20041;-85
2022/06/01 00:57:51;;;;;;;12.38;10.02;;;11.20;99.90;;;;;;5056193;28;20045;-85
2022/06/01 01:00:21;;;;;;;12.15;10.20;;;11.10;99.90;;;;;;5054266;28;20044;-85
2022/06/01 01:02:49;;;;;;;12.15;10.32;;;11.10;99.90;;;;;;5054130;28;20044;-85
2022/06/01 01:05:16;;;;;;;12.63;10.93;;;11.20;99.90;;;;;;5071437;28;20048;-84
2022/06/01 01:07:43;;;;;;;13.85;11.77;;;11.10;99.90;;;;;;5070638;28;20048;-85
2022/06/01 01:10:12;;;;;;;14.50;11.95;;;11.10;99.90;;;;;;5070600;28;20071;-85
2022/06/01 01:12:58;;;;;;;14.98;11.88;;;11.20;99.90;;;;;;5053967;28;20040;-86
2022/06/01 01:15:55;;;;;;;12.77;11.43;;;11.10;99.90;;;;;;5057273;28;20039;-85
2022/06/01 01:18:30;;;;;;;14.15;11.88;;;11.10;99.90;;;;;;5071079;28;20455;-86
2022/06/01 01:21:02;;;;;;;13.02;11.25;;;11.20;99.90;;;;;;5071207;28;20044;-86
2022/06/01 01:23:59;;;;;;;14.63;11.18;;;11.20;99.90;;;;;;5054121;28;20044;-84
2022/06/01 01:26:27;;;;;;;12.63;10.73;;;11.20;99.90;;;;;;5071025;28;20040;-85
2022/06/01 01:28:53;;;;;;;13.88;11.68;;;11.30;99.90;;;;;;5073095;28;20109;-85
2022/06/01 01:31:21;;;;;;;12.95;11.25;;;11.20;99.90;;;;;;5073831;28;20036;-85
2022/06/01 01:33:50;;;;;;;13.07;11.68;;;11.20;99.90;;;;;;5074349;28;20500;-85
2022/06/01 01:36:20;;;;;;;16.73;11.73;;;11.20;99.90;;;;;;5057850;28;20438;-85
2022/06/01 01:39:05;;;;;;;12.48;11.18;;;11.20;99.90;;;;;;5057624;28;20036;-85
2022/06/01 01:41:36;;;;;;;13.73;11.13;;;11.20;99.90;;;;;;5074059;28;20049;-84
2022/06/01 01:44:19;;;;;;;13.48;10.98;;;11.20;99.90;;;;;;5074484;28;20044;-85
2022/06/01 01:46:50;;;;;;;13.40;11.32;;;11.30;99.90;;;;;;5073797;28;20058;-86
2022/06/01 01:49:21;;;;;;;12.25;10.80;;;11.30;99.90;;;;;;5057751;28;20393;-85
2022/06/01 01:51:49;;;;;;;15.48;11.65;;;11.20;99.90;;;;;;5057423;28;20044;-85
2022/06/01 01:54:45;;;;;;;13.38;11.00;;;11.20;99.90;;;;;;5040611;28;20037;-86
2022/06/01 01:57:21;;;;;;;15.63;12.50;;;11.20;99.90;;;;;;5074727;28;20040;-85
2022/06/01 02:00:08;;;;;;;14.88;12.40;;;11.10;99.90;;;;;;5057753;28;20546;-86
2022/06/01 02:03:06;;;;;;;13.60;11.80;;;11.10;99.90;;;;;;5073724;28;20038;-85
2022/06/01 02:06:04;;;;;;;13.43;11.50;;;11.10;99.90;;;;;;5057386;28;20033;-84
2022/06/01 02:09:07;;;;;;;14.30;11.85;;;11.10;99.90;;;;;;5073291;28;20043;-84
2022/06/01 02:14:51;;;;;;;14.23;12.10;;;11.10;99.90;;;;;;5083697;28;20086;-84
2022/06/01 02:17:23;;;;;;;17.83;12.55;;;11.10;99.90;;;;;;5057265;28;20045;-85
2022/06/01 02:19:55;;;;;;;14.45;11.68;;;11.00;99.90;;;;;;5057086;28;20070;-86
2022/06/01 02:22:20;;;;;;;14.38;12.23;;;11.00;99.90;;;;;;5073404;28;20047;-84
2022/06/01 02:24:47;;;;;;;14.10;11.88;;;10.90;99.90;;;;;;5056766;28;20036;-84
2022/06/01 02:27:14;;;;;;;;;;;10.90;99.90;;;;;;5040674;28;20032;-85
2022/06/01 02:30:10;;;;;;;17.10;12.90;;;10.90;99.90;;;;;;5067076;28;19916;-85
2022/06/01 02:32:38;;;;;;;15.82;13.02;;;10.90;99.90;;;;;;5039437;28;20037;-85
2022/06/01 02:35:07;;;;;;;15.88;13.13;;;10.80;99.90;;;;;;5040201;28;20493;-84
2022/06/01 02:37:35;;;;;;;14.48;11.88;;;10.80;99.90;;;;;;5039751;28;20037;-85
2022/06/01 02:40:07;;;;;;;14.63;12.15;;;10.70;99.90;;;;;;5039659;28;20041;-85
2022/06/01 02:42:52;;;;;;;15.10;11.48;;;10.70;99.90;;;;;;5056440;28;20041;-85
2022/06/01 02:45:27;;;;;;;13.50;12.10;;;10.60;99.90;;;;;;5039934;28;20076;-84
2022/06/01 02:47:56;;;;;;;15.57;12.80;;;10.60;99.90;;;;;;5056536;28;20098;-85
2022/06/01 02:50:26;;;;;;;14.05;12.57;;;10.60;99.90;;;;;;5039449;28;20093;-85
2022/06/01 02:52:52;;;;;;;14.73;12.38;;;10.70;99.90;;;;;;5056123;28;20097;-86
2022/06/01 02:55:21;;;;;;;15.15;12.80;;;10.60;99.90;;;;;;5039723;28;20048;-84
2022/06/01 02:57:47;;;;;;;17.42;14.07;;;10.60;99.90;;;;;;5039639;28;20156;-85
2022/06/01 03:00:34;;;;;;;14.63;13.02;;;10.60;99.90;;;;;;5023366;28;20090;-85
2022/06/01 03:03:01;;;;;;;16.77;12.73;;;10.60;99.90;;;;;;5039526;28;20043;-85
2022/06/01 03:05:30;;;;;;;14.40;12.00;;;10.60;99.90;;;;;;5055894;28;20048;-85
2022/06/01 03:07:56;;;;;;;14.10;11.68;;;10.60;99.90;;;;;;5039629;28;20043;-85
2022/06/01 03:10:26;;;;;;;15.30;11.63;;;10.60;99.90;;;;;;5039037;28;20135;-85
2022/06/01 03:12:52;;;;;;;13.75;12.35;;;10.60;99.90;;;;;;5056402;28;20527;-85
2022/06/01 03:15:20;;;;;;;15.18;12.77;;;10.80;99.90;;;;;;5023364;28;20041;-84
2022/06/01 03:17:46;;;;;;;15.38;12.95;;;10.60;99.90;;;;;;5056008;28;20452;-85
2022/06/01 03:20:15;;;;;;;15.07;13.40;;;10.70;99.90;;;;;;5039898;28;20127;-85
2022/06/01 03:22:41;;;;;;;16.42;13.30;;;10.60;99.90;;;;;;5055866;28;20123;-86
2022/06/01 03:25:11;;;;;;;16.35;13.02;;;10.70;99.90;;;;;;5055962;28;20044;-86
2022/06/01 03:27:36;;;;;;;15.02;13.43;;;10.70;99.90;;;;;;5055543;28;20072;-86
2022/06/01 03:30:06;;;;;;;16.17;13.77;;;10.60;99.90;;;;;;5039130;28;20084;-85
2022/06/01 03:32:32;;;;;;;17.77;14.23;;;10.60;99.90;;;;;;5055364;28;20070;-85
2022/06/01 03:34:57;;;;;;;16.02;14.38;;;10.70;99.90;;;;;;5038960;28;20524;-85
2022/06/01 03:37:23;;;;;;;17.27;13.73;;;10.70;99.90;;;;;;5022492;28;20083;-85
2022/06/01 03:39:49;;;;;;;17.48;15.57;;;10.70;99.90;;;;;;5022257;28;20165;-84
2022/06/01 03:42:15;;;;;;;20.83;14.43;;;11.10;99.90;;;;;;5039234;28;20127;-85
2022/06/01 03:47:24;;;;;;;17.88;15.32;;;10.80;99.90;;;;;;5055111;28;20336;-85
2022/06/01 03:49:50;;;;;;;18.10;14.98;;;10.80;99.90;;;;;;5038428;28;20119;-85
2022/06/01 03:52:16;;;;;;;18.23;16.33;;;10.80;99.90;;;;;;5021722;28;20036;-85
2022/06/01 03:54:41;;;;;;;19.77;15.50;;;10.90;99.90;;;;;;5038482;28;20293;-85
2022/06/01 03:57:08;;;;;;;19.25;15.95;;;10.90;99.90;;;;;;5022751;28;20036;-85
2022/06/01 03:59:34;;;;;;;19.38;16.15;;;11.00;99.90;;;;;;5038720;28;20124;-85
2022/06/01 04:02:04;;;;;;;;;;;10.90;99.90;;;;;;5022956;28;20135;-85
2022/06/01 04:04:30;;;;;;;18.92;16.02;;;10.90;99.90;;;;;;5054830;28;19924;-84
2022/06/01 04:06:55;;;;;;;20.63;16.60;;;11.00;99.90;;;;;;5055191;28;20484;-85
2022/06/01 04:09:21;;;;;;;21.23;16.63;;;11.00;99.90;;;;;;5055091;28;20048;-85
2022/06/01 04:11:47;;;;;;;21.40;16.08;;;11.00;99.90;;;;;;5021823;28;20044;-84
2022/06/01 04:14:12;;;;;;;21.23;18.40;;;10.90;99.90;;;;;;5038328;28;20037;-84
2022/06/01 04:16:38;;;;;;;20.70;17.17;;;11.00;99.90;;;;;;5038046;28;20274;-86
2022/06/01 04:19:04;;;;;;;21.23;16.55;;;11.00;99.90;;;;;;5021739;28;20155;-85
2022/06/01 04:21:35;;;;;;;18.45;16.40;;;11.70;99.90;;;;;;5054529;28;20036;-85
2022/06/01 04:24:02;;;;;;;18.35;16.38;;;11.10;99.90;;;;;;5055004;28;20393;-85
2022/06/01 04:26:28;;;;;;;17.88;15.65;;;11.10;99.90;;;;;;5038129;28;20048;-86
2022/06/01 04:28:54;;;;;;;17.13;14.57;;;11.10;99.90;;;;;;5037892;28;20037;-85
2022/06/01 04:31:21;;;;;;;19.35;15.80;;;11.10;99.90;;;;;;5054712;28;20044;-85
2022/06/01 04:33:46;;;;;;;19.83;15.88;;;11.00;99.90;;;;;;5037947;28;20395;-85
2022/06/01 04:36:12;;;;;;;16.95;15.02;;;11.00;99.90;;;;;;5037582;28;20043;-85
2022/06/01 04:38:38;;;;;;;17.08;14.13;;;11.00;99.90;;;;;;5021284;28;20040;-85
2022/06/01 04:41:03;;;;;;;17.47;15.37;;;11.00;99.90;;;;;;5054177;28;20496;-85
2022/06/01 04:43:29;;;;;;;19.70;15.85;;;11.00;99.90;;;;;;5037935;28;20638;-85
2022/06/01 04:45:56;;;;;;;20.85;16.77;;;11.00;99.90;;;;;;5037672;28;20048;-85
2022/06/01 04:48:23;;;;;;;18.40;15.93;;;11.00;99.90;;;;;;5054065;28;20102;-85
2022/06/01 04:50:48;;;;;;;25.55;17.35;;;11.00;99.90;;;;;;5037214;28;20044;-85
2022/06/01 04:53:16;;;;;;;19.13;15.98;;;11.10;99.90;;;;;;5037433;28;20082;-84
2022/06/01 04:55:44;;;;;;;21.25;16.75;;;11.00;99.90;;;;;;5054520;28;20496;-85
2022/06/01 04:58:10;;;;;;;18.48;15.43;;;11.00;99.90;;;;;;5037303;28;20041;-84
2022/06/01 05:00:36;;;;;;;18.85;16.42;;;11.00;99.90;;;;;;5037087;28;20375;-84
2022/06/01 05:03:02;;;;;;;21.95;17.02;;;11.00;99.90;;;;;;5023922;28;20040;-85
2022/06/01 05:05:28;;;;;;;19.33;17.30;;;11.20;99.90;;;;;;5040941;28;20135;-85
2022/06/01 05:07:54;;;;;;;20.20;16.88;;;11.10;99.90;;;;;;5041653;28;20102;-86
2022/06/01 05:10:21;;;;;;;23.38;18.20;;;11.10;99.90;;;;;;5040969;28;20048;-84
2022/06/01 05:12:50;;;;;;;18.77;16.77;;;11.10;99.90;;;;;;5041700;28;20479;-86
2022/06/01 05:15:16;;;;;;;21.55;17.90;;;11.10;99.90;;;;;;5044572;28;20040;-85
2022/06/01 05:17:42;;;;;;;20.60;17.67;;;11.10;99.90;;;;;;5026451;28;20401;-85
2022/06/01 05:20:09;;;;;;;18.67;16.63;;;11.50;99.90;;;;;;5057710;28;20137;-85
2022/06/01 05:22:35;;;;;;;19.65;17.45;;;11.10;99.90;;;;;;5057609;28;20396;-84
2022/06/01 05:25:01;;;;;;;22.20;16.65;;;11.20;99.90;;;;;;5041053;28;20041;-85
2022/06/01 05:27:27;;;;;;;22.48;17.10;;;11.20;99.90;;;;;;5041499;28;20052;-85
2022/06/01 05:29:52;;;;;;;19.55;17.45;;;11.40;99.90;;;;;;5057603;28;20051;-85
2022/06/01 05:32:18;;;;;;;22.35;17.73;;;11.50;99.90;;;;;;5041462;28;20040;-85
2022/06/01 05:34:44;;;;;;;19.08;17.02;;;11.60;99.90;;;;;;5058061;28;20036;-84
2022/06/01 05:37:10;;;;;;;20.25;17.55;;;11.70;99.90;;;;;;5057822;28;20067;-85
2022/06/01 05:39:36;;;;;;;20.02;17.38;;;11.70;99.90;;;;;;5026506;28;20102;-85
2022/06/01 05:42:02;;;;;;;19.27;17.23;;;11.70;99.90;;;;;;5064588;28;20098;-85
2022/06/01 05:44:28;;;;;;;21.17;18.02;;;11.70;99.90;;;;;;5057880;28;20492;-85
2022/06/01 05:46:59;;;;;;;23.88;17.92;;;11.70;99.90;;;;;;5041545;28;20048;-86
2022/06/01 05:49:25;;;;;;;19.65;17.23;;;11.70;99.90;;;;;;5040914;28;20053;-85
2022/06/01 05:51:51;;;;;;;;;;;11.80;99.90;;;;;;5041381;28;20040;-85
2022/06/01 05:54:16;;;;;;;20.80;17.58;;;11.80;99.90;;;;;;5041550;28;19950;-85
2022/06/01 05:56:42;;;;;;;23.13;17.13;;;11.80;99.90;;;;;;5057175;28;20066;-86
2022/06/01 05:59:08;;;;;;;19.35;17.17;;;11.90;99.90;;;;;;5024796;28;20283;-85
2022/06/01 06:01:34;;;;;;;18.88;15.88;;;12.30;99.90;;;;;;5042105;28;20131;-85
2022/06/01 06:03:59;;;;;;;17.77;15.80;;;12.80;99.90;;;;;;5060786;28;20041;-85
2022/06/01 06:06:25;;;;;;;19.03;16.67;;;13.30;99.90;;;;;;5024197;28;20287;-85
2022/06/01 06:09:00;;;;;;;17.67;14.23;;;13.80;99.90;;;;;;5026100;28;20305;-85
2022/06/01 06:11:29;;;;;;;16.05;14.25;;;14.20;99.90;;;;;;5042014;28;20076;-85
2022/06/01 06:13:56;;;;;;;15.82;13.27;;;14.30;99.90;;;;;;5056259;28;20102;-85
2022/06/01 06:16:22;;;;;;;18.00;14.52;;;14.50;99.90;;;;;;5040816;28;20037;-85
2022/06/01 06:18:48;;;;;;;;;;;14.60;99.90;;;;;;5040856;28;20086;-85
2022/06/01 06:21:14;;;;;;;14.70;12.90;;;14.30;99.90;;;;;;5045622;28;20348;-85
2022/06/01 06:23:40;;;;;;;15.15;12.68;;;14.20;99.90;;;;;;5024235;28;20036;-86
2022/06/01 06:26:06;;;;;;;12.57;11.27;;;14.30;99.90;;;;;;5040984;28;20055;-86
2022/06/01 06:28:32;;;;;;;10.23;9.10;;;14.80;99.90;;;;;;5023945;28;20056;-85
2022/06/01 06:30:58;;;;;;;8.32;7.50;;;14.90;99.90;;;;;;5040294;28;20507;-85
2022/06/01 06:33:24;;;;;;;10.18;8.23;;;14.80;99.90;;;;;;5040271;28;20036;-85
2022/06/01 06:35:59;;;;;;;8.88;7.80;;;14.60;99.90;;;;;;5057251;28;20036;-85
2022/06/01 06:38:26;;;;;;;8.15;6.97;;;14.40;99.90;;;;;;5040286;28;20087;-85
2022/06/01 06:40:54;;;;;;;9.02;7.25;;;14.30;99.90;;;;;;5024140;28;20036;-85
2022/06/01 06:43:21;;;;;;;10.60;8.52;;;14.20;99.90;;;;;;5040664;28;20381;-87
2022/06/01 06:45:52;;;;;;;9.98;8.88;;;14.10;99.90;;;;;;5056696;28;20041;-86
2022/06/01 06:48:18;;;;;;;9.05;7.20;;;14.00;99.90;;;;;;5023638;28;20669;-85
2022/06/01 06:50:43;;;;;;;5.80;5.18;;;13.90;99.90;;;;;;5050442;28;20044;-85
2022/06/01 06:53:09;;;;;;;15.18;6.63;;;13.70;99.90;;;;;;5045580;28;20484;-86
2022/06/01 06:55:35;;;;;;;10.98;7.05;;;13.50;99.90;;;;;;5056257;28;20044;-86
2022/06/01 06:58:01;;;;;;;9.55;7.38;;;13.30;99.90;;;;;;5056278;28;20037;-87
2022/06/01 07:00:26;;;;;;;8.38;6.65;;;13.00;99.90;;;;;;5056262;28;20047;-87
2022/06/01 07:02:52;;;;;;;9.77;6.93;;;12.80;99.90;;;;;;5056182;28;20054;-86
2022/06/01 07:06:08;;;;;;;8.33;7.00;;;12.70;99.90;;;;;;5039554;28;20046;-86
2022/06/01 07:08:07;;;;;;;15.18;8.73;;;12.60;99.90;;;;;;5056057;28;20296;-86
2022/06/01 07:10:32;;;;;;;10.25;6.47;;;12.50;99.90;;;;;;5052158;28;20140;-86
2022/06/01 07:12:58;;;;;;;6.85;5.68;;;12.50;99.90;;;;;;5019610;28;20084;-87
2022/06/01 07:15:24;;;;;;;7.70;5.68;;;12.30;99.90;;;;;;5036822;28;20037;-87
2022/06/01 07:17:50;;;;;;;5.43;4.03;;;12.30;99.90;;;;;;5036425;28;20044;-88
2022/06/01 07:20:16;;;;;;;;;;;12.30;99.90;;;;;;5053865;28;20041;-87
2022/06/01 07:22:42;;;;;;;4.07;2.95;;;12.10;99.90;;;;;;5036285;28;19917;-87
2022/06/01 07:25:08;;;;;;;2.97;2.70;;;12.10;99.90;;;;;;5035671;28;20124;-88
2022/06/01 07:27:34;;;;;;;3.47;2.92;;;12.20;99.90;;;;;;5052507;28;20503;-88
2022/06/01 07:29:59;;;;;;;3.35;2.60;;;12.20;99.90;;;;;;5036148;28;20045;-87
2022/06/01 07:32:25;;;;;;;2.28;2.08;;;12.30;99.90;;;;;;5036368;28;20051;-87
2022/06/01 07:34:53;;;;;;;3.85;2.75;;;12.40;99.90;;;;;;5019493;28;20044;-87
2022/06/01 07:43:06;;;;;;;3.55;2.55;;;12.80;99.90;;;;;;5052438;28;20152;-88
2022/06/01 07:45:34;;;;;;;2.53;2.33;;;12.90;99.90;;;;;;5051995;28;20083;-88
2022/06/01 07:48:00;;;;;;;2.33;1.70;;;13.10;99.90;;;;;;5035841;28;20119;-88
2022/06/01 07:50:25;;;;;;;2.58;1.80;;;13.60;99.90;;;;;;5035668;28;20083;-88
2022/06/01 07:52:54;;;;;;;3.28;2.10;;;14.20;99.90;;;;;;5052073;28;20048;-88
2022/06/01 07:55:19;;;;;;;2.63;2.08;;;14.90;99.90;;;;;;5019687;28;20036;-88
2022/06/01 07:57:45;;;;;;;2.30;2.10;;;15.30;99.90;;;;;;5022491;28;20098;-87
2022/06/01 08:00:11;;;;;;;2.83;2.10;;;15.80;99.90;;;;;;5037431;28;20087;-87
2022/06/01 08:02:38;;;;;;;4.78;3.85;;;16.30;99.90;;;;;;5035465;28;20043;-89
2022/06/01 08:05:08;;;;;;;5.22;3.78;;;16.60;99.90;;;;;;5019671;28;20404;-88
2022/06/01 08:07:34;;;;;;;4.53;3.92;;;17.00;99.90;;;;;;5036205;28;20044;-88
2022/06/01 08:10:00;;;;;;;7.18;4.85;;;16.90;99.90;;;;;;5035246;28;20060;-88
2022/06/01 08:15:11;;;;;;;6.22;5.22;;;17.20;99.90;;;;;;5052183;28;20041;-89
2022/06/01 08:17:38;;;;;;;6.78;5.65;;;17.40;99.90;;;;;;5052221;28;20405;-88
2022/06/01 08:20:04;;;;;;;6.20;5.60;;;17.50;99.90;;;;;;5018836;28;20098;-88
2022/06/01 08:22:30;;;;;;;6.43;4.80;;;17.50;99.90;;;;;;5035142;28;20037;-87
2022/06/01 08:24:56;;;;;;;5.78;5.05;;;17.40;99.90;;;;;;5051420;28;20373;-88
2022/06/01 08:27:21;;;;;;;11.02;5.82;;;17.40;99.90;;;;;;5035288;28;20041;-88
2022/06/01 08:29:47;;;;;;;5.95;5.35;;;17.10;99.90;;;;;;5034970;28;20120;-88
2022/06/01 08:32:13;;;;;;;7.00;5.50;;;17.00;99.90;;;;;;5052070;28;20463;-88
2022/06/01 08:34:38;;;;;;;6.07;5.22;;;16.80;99.90;;;;;;5035243;28;20500;-87
2022/06/01 08:37:05;;;;;;;5.32;4.22;;;16.60;99.90;;;;;;5019984;28;20041;-87
2022/06/01 08:39:31;;;;;;;5.20;4.70;;;16.50;99.90;;;;;;5039379;28;20079;-88
2022/06/01 08:42:00;;;;;;;6.40;5.32;;;16.40;99.90;;;;;;5056477;28;20106;-87
2022/06/01 08:44:32;;;;;;;4.88;3.63;;;16.30;99.90;;;;;;5055832;28;20099;-88
2022/06/01 08:47:03;;;;;;;6.72;5.47;;;16.30;99.90;;;;;;5055830;28;20133;-87
2022/06/01 08:49:33;;;;;;;5.13;4.63;;;16.20;99.90;;;;;;5039515;28;20123;-87
2022/06/01 08:51:59;;;;;;;5.88;4.88;;;16.10;99.90;;;;;;5055792;28;20049;-87
2022/06/01 08:54:25;;;;;;;6.65;4.85;;;16.20;99.90;;;;;;5039123;28;20742;-87
2022/06/01 08:56:52;;;;;;;;;;;16.00;99.90;;;;;;5060768;28;20040;-88
2022/06/01 08:59:20;;;;;;;5.50;5.00;;;16.00;99.90;;;;;;5039264;28;19930;-88
2022/06/01 09:01:59;;;;;;;5.97;5.00;;;16.00;99.90;;;;;;5038279;28;20145;-88
2022/06/01 09:04:38;;;;;;;5.50;4.68;;;16.10;99.90;;;;;;5055551;28;20048;-87
2022/06/01 09:07:13;;;;;;;7.22;5.28;;;16.30;99.90;;;;;;5055313;28;20056;-87
2022/06/01 09:10:00;;;;;;;6.20;5.22;;;16.50;99.90;;;;;;5038606;28;20544;-86
2022/06/01 09:12:26;;;;;;;5.60;5.03;;;17.10;99.90;;;;;;5054831;28;20049;-87
2022/06/01 09:14:56;;;;;;;5.55;4.60;;;17.60;99.90;;;;;;5038665;28;20044;-87
2022/06/01 09:17:22;;;;;;;5.80;5.20;;;17.90;99.90;;;;;;5055337;28;20554;-86
2022/06/01 09:22:39;;;;;;;5.90;4.90;;;18.90;99.90;;;;;;5035015;28;20052;-87
2022/06/01 09:25:06;;;;;;;5.95;5.35;;;19.20;99.90;;;;;;5002533;28;20045;-87
2022/06/01 09:27:39;;;;;;;6.60;4.40;;;19.40;99.90;;;;;;5034904;28;20056;-87
2022/06/01 09:30:42;;;;;;;4.80;4.30;;;19.30;99.90;;;;;;5035072;28;20038;-86
2022/06/01 09:33:28;;;;;;;5.20;4.70;;;18.90;99.90;;;;;;5014714;28;20084;-86
2022/06/01 09:36:02;;;;;;;4.67;3.60;;;18.40;99.90;;;;;;5023515;28;20033;-87
2022/06/01 09:38:46;;;;;;;3.40;2.95;;;18.30;99.90;;;;;;5038005;28;20098;-85
2022/06/01 09:41:22;;;;;;;5.25;4.00;;;18.10;99.90;;;;;;5038184;28;20037;-84
2022/06/01 09:44:00;;;;;;;4.07;3.28;;;17.80;99.90;;;;;;5045953;28;20444;-87
2022/06/01 09:46:34;;;;;;;3.50;3.10;;;17.60;99.90;;;;;;5013652;28;20041;-88
2022/06/01 09:49:09;;;;;;;4.80;3.78;;;17.40;99.90;;;;;;5033991;28;20049;-87
2022/06/01 09:51:38;;;;;;;5.22;4.28;;;17.40;99.90;;;;;;5034734;28;20095;-87
2022/06/01 09:54:12;;;;;;;5.18;4.60;;;17.40;99.90;;;;;;5034650;28;20041;-87
2022/06/01 09:56:44;;;;;;;8.70;4.20;;;17.40;99.90;;;;;;5017441;28;20048;-88
2022/06/01 10:07:41;;;;;;;5.10;3.83;;;19.00;99.90;;;;;;5033490;28;20041;-87
2022/06/01 10:10:17;;;;;;;5.65;4.22;;;18.80;99.90;;;;;;5031112;28;20057;-87
2022/06/01 10:12:52;;;;;;;4.25;3.65;;;18.70;99.90;;;;;;5043857;28;20045;-87
2022/06/01 10:15:45;;;;;;;4.38;3.47;;;18.60;99.90;;;;;;5042263;28;20037;-86
2022/06/01 10:18:26;;;;;;;4.22;2.95;;;18.60;99.90;;;;;;5053993;28;20033;-86
2022/06/01 10:21:07;;;;;;;2.83;2.50;;;18.20;99.90;;;;;;5036906;28;20124;-87
2022/06/01 10:23:55;;;;;;;2.58;2.20;;;18.20;99.90;;;;;;5054021;28;20047;-86
2022/06/01 10:26:39;;;;;;;2.80;2.13;;;18.00;99.90;;;;;;5037171;28;20056;-87
2022/06/01 10:29:17;;;;;;;3.13;2.22;;;17.80;99.90;;;;;;5054154;28;20044;-87
2022/06/01 10:32:04;;;;;;;2.30;2.10;;;17.70;99.90;;;;;;5052850;28;20032;-87
2022/06/01 10:34:39;;;;;;;2.33;1.33;;;17.70;99.90;;;;;;5053766;28;20115;-87
2022/06/01 10:37:11;;;;;;;1.95;1.55;;;17.90;99.90;;;;;;5053910;28;20037;-87
2022/06/01 10:39:51;;;;;;;2.63;1.88;;;18.00;99.90;;;;;;5053660;28;20393;-86
2022/06/01 10:45:16;;;;;;;2.60;1.90;;;18.20;99.90;;;;;;5053190;28;20072;-86
2022/06/01 10:47:54;;;;;;;2.47;1.60;;;18.10;99.90;;;;;;5053018;28;20512;-87
2022/06/01 10:50:32;;;;;;;1.60;1.48;;;18.00;99.90;;;;;;5058166;28;20091;-87
2022/06/01 10:53:13;;;;;;;2.45;1.30;;;17.70;99.90;;;;;;5053128;28;20064;-86
2022/06/01 10:55:44;;;;;;;1.73;1.38;;;17.60;99.90;;;;;;5036436;28;20041;-87
2022/06/01 10:58:21;;;;;;;3.50;1.80;;;17.50;99.90;;;;;;5052707;28;20060;-85
2022/06/01 11:01:20;;;;;;;1.90;1.60;;;17.40;99.90;;;;;;5052785;28;20088;-86
2022/06/01 11:03:55;;;;;;;2.55;1.60;;;17.40;99.90;;;;;;5052953;28;20493;-86
2022/06/01 11:06:45;;;;;;;2.13;1.40;;;17.30;99.90;;;;;;5052301;28;20041;-86
2022/06/01 11:09:23;;;;;;;3.28;2.10;;;17.20;99.90;;;;;;5058262;28;20056;-86
2022/06/01 11:12:13;;;;;;;3.17;2.17;;;16.90;99.90;;;;;;5055479;28;20044;-87
2022/06/01 11:15:16;;;;;;;2.70;2.30;;;16.40;99.90;;;;;;5072532;28;20037;-87
2022/06/01 11:17:53;;;;;;;3.55;2.70;;;16.20;99.90;;;;;;5055280;28;20032;-86
2022/06/01 11:20:51;;;;;;;2.92;2.63;;;16.00;99.90;;;;;;5071769;28;20040;-87
2022/06/01 11:23:32;;;;;;;;;;;15.90;99.90;;;;;;5033125;28;20393;-86
2022/06/01 11:26:12;;;;;;;2.20;1.80;;;15.80;99.90;;;;;;5016560;28;19925;-88
2022/06/01 11:29:06;;;;;;;1.83;1.30;;;15.80;99.90;;;;;;5032496;28;20053;-88
2022/06/01 11:31:35;;;;;;;1.58;1.30;;;15.80;99.90;;;;;;5032326;28;20042;-88
2022/06/01 11:34:15;;;;;;;3.38;1.60;;;15.70;99.90;;;;;;5032899;28;20029;-88
2022/06/01 11:37:00;;;;;;;2.55;1.60;;;15.60;99.90;;;;;;5022547;28;20040;-87
2022/06/01 11:39:34;;;;;;;2.40;1.90;;;15.80;99.90;;;;;;5052801;28;20129;-87
2022/06/01 11:42:10;;;;;;;2.95;2.13;;;15.90;99.90;;;;;;5035619;28;20045;-87
2022/06/01 11:44:38;;;;;;;2.05;1.75;;;16.10;99.90;;;;;;5052077;28;20119;-87
2022/06/01 11:47:14;;;;;;;1.65;1.25;;;16.20;99.90;;;;;;5036213;28;20097;-87
2022/06/01 11:49:43;;;;;;;2.00;1.00;;;16.40;99.90;;;;;;5035214;28;20049;-88
2022/06/01 11:52:24;;;;;;;1.40;1.27;;;16.50;99.90;;;;;;5035199;28;20048;-85
2022/06/01 11:55:16;;;;;;;1.48;1.27;;;16.80;99.90;;;;;;5035559;28;20072;-85
2022/06/01 11:57:44;;;;;;;1.52;0.90;;;17.10;99.90;;;;;;5026970;28;20045;-85
2022/06/01 12:00:19;;;;;;;1.40;1.30;;;17.40;99.90;;;;;;5045295;28;20041;-87
2022/06/01 12:02:53;;;;;;;2.55;1.33;;;17.80;99.90;;;;;;5015029;28;20033;-85
2022/06/01 12:05:22;;;;;;;1.80;1.30;;;18.10;99.90;;;;;;5027492;28;20040;-84
2022/06/01 12:07:56;;;;;;;2.17;1.98;;;18.20;99.90;;;;;;5050622;28;20455;-84
2022/06/01 12:10:48;;;;;;;2.45;1.88;;;18.40;99.90;;;;;;5030758;28;20560;-84
2022/06/01 12:13:26;;;;;;;1.98;1.50;;;18.50;99.90;;;;;;5024233;28;20068;-83
2022/06/01 12:16:20;;;;;;;2.03;1.65;;;18.80;99.90;;;;;;5030959;28;20519;-84
2022/06/01 12:19:11;;;;;;;3.50;2.30;;;19.20;99.90;;;;;;5010145;28;20069;-83
2022/06/01 12:21:43;;;;;;;2.85;2.38;;;19.10;99.90;;;;;;5030678;28;20097;-84
2022/06/01 12:30:15;;;;;;;3.00;2.30;;;19.00;99.90;;;;;;5050694;28;20101;-83
2022/06/01 12:32:59;;;;;;;2.90;2.00;;;19.20;99.90;;;;;;5050997;28;20045;-85
2022/06/01 12:35:43;;;;;;;2.92;2.03;;;19.10;99.90;;;;;;5050668;28;20037;-83
2022/06/01 12:38:22;;;;;;;3.03;1.70;;;19.10;99.90;;;;;;5034077;28;20071;-84
2022/06/01 12:41:00;;;;;;;2.00;1.70;;;18.80;99.90;;;;;;5050437;28;20064;-83
2022/06/01 12:43:26;;;;;;;1.70;1.40;;;18.30;99.90;;;;;;5050678;28;20098;-83
2022/06/01 12:45:54;;;;;;;2.28;1.63;;;18.00;99.90;;;;;;5050436;28;20052;-83
2022/06/01 12:48:24;;;;;;;1.92;1.30;;;17.70;99.90;;;;;;5017646;28;20077;-83
2022/06/01 12:51:04;;;;;;;1.30;1.08;;;17.30;99.90;;;;;;5050430;28;20048;-84
2022/06/01 12:53:42;;;;;;;4.07;1.10;;;17.20;99.90;;;;;;5050447;28;20045;-83
2022/06/01 12:56:20;;;;;;;2.55;1.00;;;17.00;99.90;;;;;;5050782;28;20041;-84
2022/06/01 12:58:48;;;;;;;1.60;1.20;;;16.80;99.90;;;;;;5038406;28;20037;-83
2022/06/01 13:01:18;;;;;;;2.72;1.35;;;16.90;99.90;;;;;;5051455;28;20048;-83
2022/06/01 13:03:50;;;;;;;1.67;1.30;;;16.80;99.90;;;;;;5038779;28;20076;-85
2022/06/01 13:06:23;;;;;;;2.55;1.42;;;16.60;99.90;;;;;;5050890;28;20124;-85
2022/06/01 13:09:01;;;;;;;3.05;1.98;;;16.50;99.90;;;;;;5053288;28;20127;-84
2022/06/01 13:11:32;;;;;;;2.72;1.60;;;16.30;99.90;;;;;;5036910;28;20046;-85
2022/06/01 13:14:09;;;;;;;3.58;1.70;;;16.10;99.90;;;;;;5053513;28;20144;-83
2022/06/01 13:16:38;;;;;;;2.20;1.85;;;16.00;99.90;;;;;;5053159;28;20500;-83
2022/06/01 13:19:16;;;;;;;2.90;2.05;;;15.70;99.90;;;;;;5053347;28;20120;-83
2022/06/01 13:21:45;;;;;;;2.15;1.77;;;15.50;99.90;;;;;;5053298;28;20051;-84
2022/06/01 13:24:11;;;;;;;2.90;1.23;;;15.30;99.90;;;;;;5056188;28;20044;-84
2022/06/01 13:26:42;;;;;;;1.88;1.45;;;15.30;99.90;;;;;;5056879;28;20044;-82
2022/06/01 13:29:38;;;;;;;1.90;1.33;;;15.30;99.90;;;;;;5059732;28;20044;-82
2022/06/01 13:32:07;;;;;;;1.88;1.10;;;15.20;99.90;;;;;;5066552;28;20053;-85
2022/06/01 13:34:45;;;;;;;1.17;0.95;;;15.20;99.90;;;;;;5048772;28;20811;-82
2022/06/01 13:37:22;;;;;;;1.45;1.00;;;15.20;99.90;;;;;;5051255;28;20032;-84